Comunidad Playita Ferry, Puerto Rico
Current Conditions -  °F | °C
As of 6:50 PM on Tuesday 25 Nov 2014 (Local Time) from TJPS Reporting Station
Few Clouds Few Clouds  
Wind Chill: 75°   Ceiling: Unl
Heat Index: 75°   Visibility: 8mi
Dew Point: 73°   Wind: 6mph
Humidity: 94%   Direction: 50°NE
Pressure: 29.95"   Gusts: NA
Location:  18.0152°N, 66.6246°W
Report Text: TJPS 252250Z 05005KT 8SM FEW020 24/23 A2995
Loading
Personal Weather Stations






























Interactive Weather Map New forecast layout! Learn more

10-Day Weather Forecast

Advertisements
Track Severe Weather on mobile